createdAt,value
2022-10-03T00:02:39.597Z,7.50
2022-10-03T00:05:10.797Z,7.90
2022-10-03T00:07:55.539Z,8.20
2022-10-03T00:10:48.175Z,7.60
2022-10-03T00:13:19.270Z,7.80
2022-10-03T00:16:06.600Z,9.00
2022-10-03T00:19:07.326Z,7.50
2022-10-03T00:21:51.049Z,7.60
2022-10-03T00:24:35.045Z,7.10
2022-10-03T00:27:17.758Z,7.20
2022-10-03T00:30:13.642Z,7.30
2022-10-03T00:32:47.244Z,6.80
2022-10-03T00:35:21.440Z,6.90
2022-10-03T00:38:24.114Z,5.80
2022-10-03T00:41:12.946Z,6.60
2022-10-03T00:44:03.152Z,6.70
2022-10-03T00:46:49.764Z,6.40
2022-10-03T00:49:43.058Z,7.00
2022-10-03T00:52:29.660Z,7.00
2022-10-03T00:55:04.064Z,7.10
2022-10-03T00:58:14.074Z,9.10
2022-10-03T01:00:50.919Z,7.00
2022-10-03T01:03:27.968Z,7.00
2022-10-03T01:06:21.458Z,7.30
2022-10-03T01:09:07.100Z,7.70
2022-10-03T01:12:00.467Z,7.20
2022-10-03T01:14:45.885Z,7.50
2022-10-03T01:17:37.996Z,7.80
2022-10-03T01:20:28.958Z,8.80
2022-10-03T01:23:33.052Z,8.40
2022-10-03T01:26:25.413Z,9.60
2022-10-03T01:29:33.936Z,8.90
2022-10-03T01:32:15.775Z,9.30
2022-10-03T01:35:08.091Z,8.40
2022-10-03T01:37:36.258Z,8.50
2022-10-03T01:40:36.826Z,7.60
2022-10-03T01:43:23.391Z,8.00
2022-10-03T01:46:18.440Z,7.80
2022-10-03T01:49:07.347Z,7.40
2022-10-03T01:51:48.269Z,7.90
2022-10-03T01:54:31.549Z,7.30
2022-10-03T01:57:29.567Z,7.90
2022-10-03T02:00:05.891Z,8.40
2022-10-03T02:02:53.282Z,8.20
2022-10-03T02:05:55.413Z,8.10
2022-10-03T02:08:35.459Z,8.50
2022-10-03T02:11:10.175Z,8.30
2022-10-03T02:13:53.087Z,8.60
2022-10-03T02:16:49.085Z,8.30
2022-10-03T02:19:29.741Z,8.20
2022-10-03T02:22:00.920Z,8.60
2022-10-03T02:24:42.657Z,8.30
2022-10-03T02:27:42.891Z,8.00
2022-10-03T02:30:20.235Z,7.40
2022-10-03T02:33:06.963Z,7.40
2022-10-03T02:35:50.409Z,7.40
2022-10-03T02:38:26.331Z,7.70
2022-10-03T02:41:09.626Z,7.70
2022-10-03T02:43:56.240Z,7.40
2022-10-03T02:46:59.999Z,8.10
2022-10-03T02:50:11.147Z,8.40
2022-10-03T02:52:54.412Z,7.60
2022-10-03T02:55:41.525Z,8.50
2022-10-03T02:58:23.074Z,8.70
2022-10-03T03:01:29.303Z,9.10
2022-10-03T03:04:27.383Z,8.80
2022-10-03T03:07:43.137Z,8.50
2022-10-03T03:10:59.626Z,8.70
2022-10-03T03:13:36.969Z,9.60
2022-10-03T03:16:25.310Z,8.90
2022-10-03T03:18:59.344Z,8.90
2022-10-03T03:21:52.557Z,9.30
2022-10-03T03:24:29.759Z,8.60
2022-10-03T03:27:04.194Z,10.00
2022-10-03T03:29:39.973Z,10.70
2022-10-03T03:32:40.225Z,9.60
2022-10-03T03:35:27.842Z,10.00
2022-10-03T03:38:36.275Z,8.80
2022-10-03T03:41:13.414Z,8.40
2022-10-03T03:43:59.634Z,8.70
2022-10-03T03:46:40.164Z,9.10
2022-10-03T03:49:14.207Z,8.60
2022-10-03T03:51:55.013Z,8.00
2022-10-03T03:54:26.536Z,8.60
2022-10-03T03:57:19.260Z,8.80
2022-10-03T03:59:47.514Z,8.70
2022-10-03T04:02:27.245Z,8.90
2022-10-03T04:05:19.951Z,9.30
2022-10-03T04:08:18.885Z,8.80
2022-10-03T04:10:58.802Z,8.10
2022-10-03T04:13:26.926Z,8.50
2022-10-03T04:16:48.636Z,8.60
2022-10-03T04:19:44.093Z,8.00
2022-10-03T04:22:35.314Z,7.40
2022-10-03T04:25:23.731Z,8.50
2022-10-03T04:28:08.156Z,7.70
2022-10-03T04:30:55.541Z,7.80
2022-10-03T04:33:25.826Z,7.20
2022-10-03T04:36:09.033Z,7.90
2022-10-03T04:38:48.912Z,7.50
2022-10-03T04:41:23.657Z,7.80
2022-10-03T04:44:12.197Z,8.50
2022-10-03T04:46:53.144Z,8.20
2022-10-03T04:49:36.060Z,7.40
2022-10-03T04:52:16.965Z,7.50
2022-10-03T04:55:07.049Z,7.60
2022-10-03T04:58:04.718Z,8.30
2022-10-03T05:00:54.828Z,7.80
2022-10-03T05:03:43.752Z,7.50
2022-10-03T05:06:41.447Z,7.30
2022-10-03T05:09:45.134Z,7.30
2022-10-03T05:12:41.917Z,7.20
2022-10-03T05:15:34.501Z,6.60
2022-10-03T05:18:02.661Z,6.40
2022-10-03T05:21:00.976Z,7.00
2022-10-03T05:24:03.563Z,7.00
2022-10-03T05:26:45.406Z,6.20
2022-10-03T05:29:52.542Z,9.00
2022-10-03T05:32:26.171Z,7.50
2022-10-03T05:35:19.284Z,7.20
2022-10-03T05:38:00.567Z,7.80
2022-10-03T05:40:34.590Z,6.80
2022-10-03T05:43:27.347Z,7.40
2022-10-03T05:46:14.917Z,8.10
2022-10-03T05:49:37.043Z,9.20
2022-10-03T05:52:34.686Z,8.50
2022-10-03T05:55:08.579Z,8.70
2022-10-03T05:58:19.987Z,7.60
2022-10-03T06:01:07.404Z,7.60
2022-10-03T06:03:55.458Z,7.30
2022-10-03T06:06:44.239Z,7.90
2022-10-03T06:09:15.570Z,7.10
2022-10-03T06:11:52.430Z,5.80
2022-10-03T06:14:30.305Z,5.50
2022-10-03T06:17:16.786Z,6.00
2022-10-03T06:20:23.892Z,5.90
2022-10-03T06:23:00.437Z,5.60
2022-10-03T06:26:19.014Z,6.60
2022-10-03T06:28:52.878Z,5.70
2022-10-03T06:31:51.942Z,5.10
2022-10-03T06:34:26.406Z,5.50
2022-10-03T06:37:03.601Z,4.50
2022-10-03T06:39:44.616Z,4.70
2022-10-03T06:42:32.374Z,5.20
2022-10-03T06:45:10.026Z,5.00
2022-10-03T06:47:56.721Z,5.30
2022-10-03T06:50:47.223Z,4.70
2022-10-03T06:54:00.407Z,4.90
2022-10-03T06:56:48.986Z,5.20
2022-10-03T06:59:24.055Z,4.40
2022-10-03T07:02:17.274Z,5.00
2022-10-03T07:04:45.547Z,5.00
2022-10-03T07:07:51.418Z,4.50
2022-10-03T07:10:25.425Z,3.80
2022-10-03T07:13:20.324Z,3.80
2022-10-03T07:16:34.302Z,3.80
2022-10-03T07:19:50.390Z,3.60
2022-10-03T07:22:56.279Z,4.40
2022-10-03T07:26:15.475Z,4.00
2022-10-03T07:28:46.446Z,4.20
2022-10-03T07:31:40.937Z,4.40
2022-10-03T07:34:46.215Z,3.80
2022-10-03T07:37:40.243Z,4.20
2022-10-03T07:40:45.473Z,4.10
2022-10-03T07:43:38.312Z,3.90
2022-10-03T07:46:44.192Z,4.20
2022-10-03T07:49:43.672Z,4.40
2022-10-03T07:52:22.659Z,3.70
2022-10-03T07:55:19.496Z,4.60
2022-10-03T07:58:25.479Z,4.60
2022-10-03T08:00:56.335Z,4.20
2022-10-03T08:03:36.916Z,4.90
2022-10-03T08:06:34.305Z,5.00
2022-10-03T08:09:41.424Z,5.60
2022-10-03T08:12:43.159Z,6.40
2022-10-03T08:15:27.263Z,5.10
2022-10-03T08:18:29.765Z,5.20
2022-10-03T08:21:03.642Z,4.90
2022-10-03T08:23:47.287Z,4.70
2022-10-03T08:26:23.143Z,6.00
2022-10-03T08:29:02.646Z,4.90
2022-10-03T08:31:37.304Z,5.40
2022-10-03T08:37:17.738Z,5.50
2022-10-03T08:40:17.446Z,5.50
2022-10-03T08:43:03.871Z,4.70
2022-10-03T08:45:52.087Z,4.80
2022-10-03T08:48:32.233Z,4.40
2022-10-03T08:51:16.546Z,5.60
2022-10-03T08:54:24.819Z,5.50
2022-10-03T08:57:26.404Z,4.30
2022-10-03T09:00:19.517Z,4.30
2022-10-03T09:03:42.751Z,4.80
2022-10-03T09:06:35.191Z,4.00
2022-10-03T09:09:24.931Z,4.50
2022-10-03T09:12:08.137Z,4.80
2022-10-03T09:15:06.975Z,4.60
2022-10-03T09:17:57.570Z,5.10
2022-10-03T09:21:07.254Z,5.20
2022-10-03T09:24:01.264Z,5.80
2022-10-03T09:26:51.066Z,4.10
2022-10-03T09:29:44.591Z,3.60
2022-10-03T09:32:18.947Z,3.90
2022-10-03T09:35:00.326Z,5.40
2022-10-03T09:37:59.072Z,4.10
2022-10-03T09:40:58.004Z,3.30
2022-10-03T09:44:03.950Z,3.60
2022-10-03T09:50:02.152Z,3.90
2022-10-03T09:53:02.696Z,4.00
2022-10-03T09:56:05.058Z,3.90
2022-10-03T09:58:45.651Z,4.30
2022-10-03T10:01:31.535Z,3.60
2022-10-03T10:04:50.529Z,3.90
2022-10-03T10:07:58.537Z,3.60
2022-10-03T10:10:29.744Z,2.80
2022-10-03T10:13:25.724Z,3.10
2022-10-03T10:16:35.159Z,2.90
2022-10-03T10:19:22.409Z,3.20
2022-10-03T10:21:53.252Z,3.10
2022-10-03T10:24:30.717Z,3.80
2022-10-03T10:27:26.717Z,3.10
2022-10-03T10:30:31.423Z,3.10
2022-10-03T10:33:19.520Z,2.90
2022-10-03T10:36:02.479Z,3.00
2022-10-03T10:38:39.746Z,2.60
2022-10-03T10:41:25.966Z,2.80
2022-10-03T10:44:19.230Z,3.30
2022-10-03T10:47:06.489Z,3.30
2022-10-03T10:49:36.626Z,3.70
2022-10-03T10:52:14.034Z,4.30
2022-10-03T10:55:06.755Z,4.60
2022-10-03T10:57:41.090Z,4.00
2022-10-03T11:00:40.194Z,4.00
2022-10-03T11:03:46.164Z,3.00
2022-10-03T11:09:22.472Z,3.50
2022-10-03T11:11:51.503Z,3.80
2022-10-03T11:14:24.640Z,2.90
2022-10-03T11:17:26.959Z,3.80
2022-10-03T11:20:14.197Z,4.10
2022-10-03T11:23:07.520Z,3.40
2022-10-03T11:26:03.380Z,3.90
2022-10-03T11:28:50.039Z,4.00
2022-10-03T11:31:55.900Z,3.60
2022-10-03T11:34:51.981Z,4.20
2022-10-03T11:37:40.393Z,4.00
2022-10-03T11:40:22.111Z,3.50
2022-10-03T11:43:21.372Z,3.60
2022-10-03T11:45:54.580Z,3.80
2022-10-03T11:48:35.212Z,4.00
2022-10-03T11:51:16.129Z,3.90
2022-10-03T11:54:13.293Z,4.50
2022-10-03T11:57:02.043Z,4.30
2022-10-03T12:00:20.405Z,4.40
2022-10-03T12:03:02.828Z,3.90
2022-10-03T12:05:49.976Z,3.80
2022-10-03T12:08:56.554Z,4.20
2022-10-03T12:11:37.131Z,4.20
2022-10-03T12:14:24.068Z,5.40
2022-10-03T12:17:12.541Z,5.80
2022-10-03T12:19:56.049Z,4.00
2022-10-03T12:22:42.709Z,3.70
2022-10-03T12:25:21.493Z,4.20
2022-10-03T12:27:55.743Z,4.00
2022-10-03T12:30:25.779Z,3.50
2022-10-03T12:33:14.865Z,3.50
2022-10-03T12:36:10.026Z,3.60
2022-10-03T12:38:41.646Z,3.70
2022-10-03T12:41:51.945Z,3.90
2022-10-03T12:44:39.926Z,2.90
2022-10-03T12:47:51.185Z,2.80
2022-10-03T12:50:37.358Z,3.70
2022-10-03T12:53:17.792Z,2.80
2022-10-03T12:56:08.418Z,2.80
2022-10-03T12:59:03.506Z,2.70
2022-10-03T13:02:12.599Z,2.90
2022-10-03T13:05:13.189Z,3.10
2022-10-03T13:08:07.533Z,2.80
2022-10-03T13:10:43.787Z,2.40
2022-10-03T13:13:21.539Z,3.20
2022-10-03T13:16:07.055Z,2.90
2022-10-03T13:18:54.407Z,2.80
2022-10-03T13:21:46.529Z,2.70
2022-10-03T13:24:40.840Z,3.00
2022-10-03T13:27:16.357Z,2.80
2022-10-03T13:29:49.065Z,2.90
2022-10-03T13:32:30.730Z,3.00
2022-10-03T13:35:26.817Z,2.70
2022-10-03T13:38:28.581Z,2.80
2022-10-03T13:41:25.584Z,2.30
2022-10-03T13:44:10.213Z,2.80
2022-10-03T13:47:23.394Z,3.40
2022-10-03T13:49:56.918Z,3.10
2022-10-03T13:52:51.616Z,3.30
2022-10-03T13:55:22.625Z,3.10
2022-10-03T13:58:19.544Z,3.40
2022-10-03T14:01:13.896Z,3.50
2022-10-03T14:04:07.014Z,2.90
2022-10-03T14:06:51.547Z,3.40
2022-10-03T14:09:47.505Z,2.90
2022-10-03T14:12:56.527Z,3.10
2022-10-03T14:15:25.005Z,2.80
2022-10-03T14:18:14.586Z,3.40
2022-10-03T14:21:08.932Z,3.20
2022-10-03T14:24:07.752Z,3.30
2022-10-03T14:27:08.824Z,3.10
2022-10-03T14:30:26.491Z,3.30
2022-10-03T14:33:31.844Z,3.50
2022-10-03T14:36:08.945Z,4.40
2022-10-03T14:39:36.728Z,4.80
2022-10-03T14:42:26.734Z,4.30
2022-10-03T14:45:20.819Z,3.60
2022-10-03T14:47:54.045Z,4.10
2022-10-03T14:50:29.127Z,4.00
2022-10-03T14:53:07.169Z,4.20
2022-10-03T14:56:06.941Z,4.30
2022-10-03T14:58:54.620Z,3.80
2022-10-03T15:01:29.001Z,3.80
2022-10-03T15:06:44.646Z,3.90
2022-10-03T15:09:20.890Z,3.90
2022-10-03T15:12:00.673Z,3.60
2022-10-03T15:14:33.375Z,3.70
2022-10-03T15:17:07.395Z,3.80
2022-10-03T15:19:44.407Z,3.80
2022-10-03T15:22:39.958Z,10.90
2022-10-03T15:25:19.811Z,4.90
2022-10-03T15:27:54.133Z,4.50
2022-10-03T15:30:31.439Z,4.10
2022-10-03T15:33:29.660Z,5.10
2022-10-03T15:36:05.960Z,4.80
2022-10-03T15:38:39.119Z,5.90
2022-10-03T15:41:21.969Z,5.90
2022-10-03T15:43:51.130Z,5.00
2022-10-03T15:46:46.512Z,6.20
2022-10-03T15:49:32.819Z,6.50
2022-10-03T15:52:17.583Z,6.10
2022-10-03T15:54:50.838Z,6.30
2022-10-03T15:57:26.712Z,6.70
2022-10-03T16:00:03.068Z,5.70
2022-10-03T16:02:54.062Z,6.20
2022-10-03T16:08:13.640Z,6.80
2022-10-03T16:11:18.059Z,6.40
2022-10-03T16:14:13.268Z,6.60
2022-10-03T16:17:31.040Z,7.00
2022-10-03T16:20:30.671Z,7.30
2022-10-03T16:23:24.179Z,8.30
2022-10-03T16:26:04.810Z,8.00
2022-10-03T16:28:40.748Z,9.50
2022-10-03T16:31:20.810Z,8.10
2022-10-03T16:34:06.951Z,7.70
2022-10-03T16:36:48.701Z,7.40
2022-10-03T16:39:24.598Z,7.30
2022-10-03T16:41:55.759Z,7.20
2022-10-03T16:44:45.538Z,6.90
2022-10-03T16:47:15.671Z,7.80
2022-10-03T16:50:14.305Z,7.60
2022-10-03T16:52:47.249Z,7.60
2022-10-03T16:55:18.594Z,7.60
2022-10-03T16:58:15.946Z,7.70
2022-10-03T17:01:25.815Z,8.30
2022-10-03T17:03:55.300Z,8.80
2022-10-03T17:06:31.614Z,7.80
2022-10-03T17:09:04.694Z,8.70
2022-10-03T17:11:38.035Z,8.10
2022-10-03T17:14:09.571Z,9.60
2022-10-03T17:16:47.930Z,10.00
2022-10-03T17:19:20.189Z,12.90
2022-10-03T17:21:54.986Z,8.10
2022-10-03T17:24:41.710Z,7.20
2022-10-03T17:27:24.639Z,7.80
2022-10-03T17:30:19.616Z,8.20
2022-10-03T17:32:56.927Z,8.80
2022-10-03T17:35:49.158Z,9.40
2022-10-03T17:38:55.392Z,10.00
2022-10-03T17:41:44.317Z,9.50
2022-10-03T17:44:34.233Z,9.60
2022-10-03T17:47:03.306Z,8.80
2022-10-03T17:49:47.915Z,9.60
2022-10-03T17:52:24.067Z,10.10
2022-10-03T17:55:07.063Z,11.80
2022-10-03T17:58:06.482Z,11.50
2022-10-03T18:00:58.869Z,12.00
2022-10-03T18:03:33.614Z,10.90
2022-10-03T18:06:35.213Z,10.90
2022-10-03T18:09:11.198Z,11.60
2022-10-03T18:11:43.075Z,10.70
2022-10-03T18:14:39.109Z,10.80
2022-10-03T18:17:14.460Z,9.80
2022-10-03T18:19:53.741Z,9.50
2022-10-03T18:22:43.578Z,9.90
2022-10-03T18:26:02.382Z,9.30
2022-10-03T18:29:16.369Z,10.20
2022-10-03T18:31:53.477Z,10.10
2022-10-03T18:34:28.257Z,9.80
2022-10-03T18:36:59.286Z,9.80
2022-10-03T18:39:32.356Z,9.00
2022-10-03T18:42:02.422Z,9.10
2022-10-03T18:44:34.070Z,9.30
2022-10-03T18:47:44.186Z,9.10
2022-10-03T18:50:27.009Z,9.10
2022-10-03T18:53:28.170Z,10.10
2022-10-03T18:56:01.795Z,9.70
2022-10-03T18:58:36.865Z,9.00
2022-10-03T19:01:07.223Z,9.40
2022-10-03T19:03:43.909Z,8.60
2022-10-03T19:06:25.279Z,7.60
2022-10-03T19:08:58.418Z,8.30
2022-10-03T19:11:34.599Z,7.00
2022-10-03T19:14:18.179Z,7.30
2022-10-03T19:17:05.043Z,6.50
2022-10-03T19:19:56.677Z,7.70
2022-10-03T19:22:40.508Z,7.70
2022-10-03T19:25:22.051Z,7.40
2022-10-03T19:28:06.541Z,7.90
2022-10-03T19:30:37.274Z,7.50
2022-10-03T19:33:07.399Z,8.40
2022-10-03T19:35:43.371Z,8.20
2022-10-03T19:38:36.681Z,9.10
2022-10-03T19:41:08.328Z,8.80
2022-10-03T19:43:44.136Z,8.00
2022-10-03T19:46:15.345Z,7.60
2022-10-03T19:49:22.377Z,8.00
2022-10-03T19:51:54.029Z,7.70
2022-10-03T19:54:35.098Z,8.20
2022-10-03T19:57:05.935Z,7.60
2022-10-03T19:59:46.205Z,7.10
2022-10-03T20:02:14.879Z,7.60
2022-10-03T20:04:50.878Z,6.80
2022-10-03T20:07:32.689Z,7.20
2022-10-03T20:10:30.260Z,6.60
2022-10-03T20:13:03.882Z,6.70
2022-10-03T20:15:44.151Z,6.10
2022-10-03T20:18:20.912Z,6.30
2022-10-03T20:20:55.775Z,5.40
2022-10-03T20:23:28.171Z,6.20
2022-10-03T20:26:10.288Z,6.70
2022-10-03T20:28:49.586Z,5.90
2022-10-03T20:31:26.518Z,5.20
2022-10-03T20:33:58.627Z,5.80
2022-10-03T20:36:31.624Z,5.30
2022-10-03T20:39:11.852Z,5.20
2022-10-03T20:41:43.116Z,5.00
2022-10-03T20:45:05.285Z,5.50
2022-10-03T20:47:39.750Z,4.90
2022-10-03T20:50:28.952Z,5.30
2022-10-03T20:53:02.384Z,5.30
2022-10-03T20:55:38.686Z,6.00
2022-10-03T20:58:19.221Z,7.20
2022-10-03T21:00:52.515Z,8.10
2022-10-03T21:03:53.828Z,8.30
2022-10-03T21:06:29.160Z,8.30
2022-10-03T21:09:01.503Z,9.00
2022-10-03T21:11:33.074Z,6.80
2022-10-03T21:14:30.342Z,6.00
2022-10-03T21:16:59.941Z,5.10
2022-10-03T21:19:34.533Z,5.50
2022-10-03T21:22:07.743Z,5.20
2022-10-03T21:24:50.780Z,5.90
2022-10-03T21:27:21.702Z,5.50
2022-10-03T21:29:54.869Z,5.70
2022-10-03T21:32:51.018Z,6.50
2022-10-03T21:35:32.620Z,5.40
2022-10-03T21:38:24.359Z,6.00
2022-10-03T21:41:01.541Z,7.10
2022-10-03T21:43:44.947Z,6.90
2022-10-03T21:46:36.654Z,7.00
2022-10-03T21:49:25.370Z,6.50
2022-10-03T21:52:07.906Z,7.10
2022-10-03T21:54:58.338Z,6.80
2022-10-03T21:57:52.792Z,7.00
2022-10-03T22:00:28.548Z,6.70
2022-10-03T22:03:17.644Z,7.30
2022-10-03T22:05:56.369Z,7.40
2022-10-03T22:08:26.317Z,6.30
2022-10-03T22:11:13.178Z,6.30
2022-10-03T22:14:12.929Z,6.80
2022-10-03T22:16:46.807Z,6.40
2022-10-03T22:19:23.277Z,6.50
2022-10-03T22:22:21.013Z,6.00
2022-10-03T22:25:28.386Z,5.70
2022-10-03T22:28:21.173Z,6.10
2022-10-03T22:31:05.215Z,5.60
2022-10-03T22:34:08.654Z,6.90
2022-10-03T22:36:39.372Z,6.00
2022-10-03T22:39:13.505Z,5.50
2022-10-03T22:41:45.958Z,5.30
2022-10-03T22:44:17.190Z,5.40
2022-10-03T22:46:50.932Z,5.80
2022-10-03T22:49:24.710Z,6.40
2022-10-03T22:51:56.010Z,5.60
2022-10-03T22:54:35.649Z,5.20
2022-10-03T22:57:09.816Z,6.10
2022-10-03T23:00:06.751Z,5.60
2022-10-03T23:02:50.140Z,6.30
2022-10-03T23:05:44.534Z,6.00
2022-10-03T23:08:37.939Z,6.00
2022-10-03T23:11:25.789Z,5.80
2022-10-03T23:14:01.437Z,6.70
2022-10-03T23:16:29.702Z,6.20
2022-10-03T23:19:13.232Z,6.60
2022-10-03T23:21:50.026Z,6.50
2022-10-03T23:24:27.181Z,7.00
2022-10-03T23:27:12.771Z,6.20
2022-10-03T23:29:41.029Z,6.00
2022-10-03T23:32:11.076Z,6.30
2022-10-03T23:34:44.475Z,6.50
2022-10-03T23:37:13.434Z,6.60
2022-10-03T23:39:44.695Z,6.20
2022-10-03T23:42:37.971Z,6.10
2022-10-03T23:45:15.115Z,6.10
2022-10-03T23:47:57.413Z,6.40
2022-10-03T23:50:39.936Z,8.60
2022-10-03T23:53:28.926Z,6.80
2022-10-03T23:56:00.305Z,6.30
2022-10-03T23:58:32.854Z,6.30
